createdAt,value
2023-05-06T00:01:50.235Z,100.00
2023-05-06T00:04:18.113Z,100.00
2023-05-06T00:06:45.303Z,100.00
2023-05-06T00:09:12.672Z,100.00
2023-05-06T00:11:40.709Z,100.00
2023-05-06T00:14:07.904Z,100.00
2023-05-06T00:16:35.303Z,100.00
2023-05-06T00:19:02.913Z,100.00
2023-05-06T00:21:30.285Z,100.00
2023-05-06T00:23:57.671Z,100.00
2023-05-06T00:26:25.190Z,100.00
2023-05-06T00:28:53.812Z,100.00
2023-05-06T00:31:21.020Z,100.00
2023-05-06T00:33:48.637Z,100.00
2023-05-06T00:36:17.530Z,100.00
2023-05-06T00:38:44.936Z,100.00
2023-05-06T00:41:12.621Z,100.00
2023-05-06T00:43:39.843Z,100.00
2023-05-06T00:46:08.873Z,100.00
2023-05-06T00:48:36.624Z,100.00
2023-05-06T00:51:04.510Z,100.00
2023-05-06T00:53:33.026Z,100.00
2023-05-06T00:56:01.059Z,100.00
2023-05-06T00:58:28.336Z,100.00
2023-05-06T01:00:55.856Z,100.00
2023-05-06T01:03:24.321Z,100.00
2023-05-06T01:05:57.446Z,100.00
2023-05-06T01:08:35.428Z,100.00
2023-05-06T01:11:07.269Z,100.00
2023-05-06T01:13:49.034Z,100.00
2023-05-06T01:16:18.634Z,100.00
2023-05-06T01:18:49.443Z,100.00
2023-05-06T01:21:17.877Z,100.00
2023-05-06T01:24:04.194Z,100.00
2023-05-06T01:26:31.659Z,100.00
2023-05-06T01:29:02.088Z,100.00
2023-05-06T01:31:40.477Z,100.00
2023-05-06T01:34:16.898Z,100.00
2023-05-06T01:37:04.737Z,100.00
2023-05-06T01:39:32.650Z,100.00
2023-05-06T01:42:02.466Z,100.00
2023-05-06T01:44:33.634Z,100.00
2023-05-06T01:47:06.150Z,100.00
2023-05-06T01:49:34.888Z,100.00
2023-05-06T01:52:02.479Z,100.00
2023-05-06T01:54:29.741Z,100.00
2023-05-06T01:56:56.936Z,100.00
2023-05-06T01:59:24.612Z,100.00
2023-05-06T02:01:52.253Z,100.00
2023-05-06T02:04:19.745Z,100.00
2023-05-06T02:06:46.977Z,100.00
2023-05-06T02:09:16.044Z,100.00
2023-05-06T02:11:44.134Z,100.00
2023-05-06T02:14:11.977Z,100.00
2023-05-06T02:16:39.227Z,100.00
2023-05-06T02:19:07.099Z,100.00
2023-05-06T02:21:34.273Z,100.00
2023-05-06T02:24:01.790Z,100.00
2023-05-06T02:26:28.931Z,100.00
2023-05-06T02:28:56.111Z,100.00
2023-05-06T02:31:23.713Z,100.00
2023-05-06T02:33:51.119Z,100.00
2023-05-06T02:36:18.227Z,100.00
2023-05-06T02:38:45.694Z,100.00
2023-05-06T02:41:12.895Z,100.00
2023-05-06T02:43:40.072Z,100.00
2023-05-06T02:46:07.778Z,100.00
2023-05-06T02:48:35.420Z,100.00
2023-05-06T02:51:03.584Z,100.00
2023-05-06T02:53:31.110Z,100.00
2023-05-06T02:55:58.279Z,100.00
2023-05-06T02:58:26.324Z,100.00
2023-05-06T03:00:53.717Z,100.00
2023-05-06T03:03:22.564Z,100.00
2023-05-06T03:05:49.727Z,100.00
2023-05-06T03:08:17.360Z,100.00
2023-05-06T03:10:44.587Z,100.00
2023-05-06T03:13:12.499Z,100.00
2023-05-06T03:15:40.134Z,100.00
2023-05-06T03:18:07.402Z,100.00
2023-05-06T03:20:34.980Z,100.00
2023-05-06T03:23:02.587Z,100.00
2023-05-06T03:25:30.436Z,100.00
2023-05-06T03:27:57.622Z,100.00
2023-05-06T03:30:25.025Z,100.00
2023-05-06T03:32:56.004Z,100.00
2023-05-06T03:35:24.073Z,100.00
2023-05-06T03:37:51.742Z,100.00
2023-05-06T03:40:19.573Z,100.00
2023-05-06T03:42:46.841Z,100.00
2023-05-06T03:45:14.683Z,100.00
2023-05-06T03:47:42.053Z,100.00
2023-05-06T03:50:10.330Z,100.00
2023-05-06T03:52:38.762Z,100.00
2023-05-06T03:55:07.050Z,100.00
2023-05-06T03:57:34.669Z,100.00
2023-05-06T04:00:02.190Z,100.00
2023-05-06T04:02:30.845Z,100.00
2023-05-06T04:04:58.857Z,100.00
2023-05-06T04:07:26.114Z,100.00
2023-05-06T04:09:53.273Z,100.00
2023-05-06T04:12:21.130Z,100.00
2023-05-06T04:14:49.037Z,100.00
2023-05-06T04:17:16.269Z,100.00
2023-05-06T04:19:43.949Z,100.00
2023-05-06T04:22:11.052Z,100.00
2023-05-06T04:24:38.535Z,100.00
2023-05-06T04:27:06.589Z,100.00
2023-05-06T04:29:33.993Z,100.00
2023-05-06T04:32:02.972Z,100.00
2023-05-06T04:34:31.299Z,100.00
2023-05-06T04:36:58.961Z,100.00
2023-05-06T04:39:26.501Z,100.00
2023-05-06T04:41:54.439Z,100.00
2023-05-06T04:44:22.481Z,100.00
2023-05-06T04:46:49.927Z,100.00
2023-05-06T04:49:17.375Z,100.00
2023-05-06T04:51:44.809Z,100.00
2023-05-06T04:54:12.148Z,100.00
2023-05-06T04:56:40.458Z,100.00
2023-05-06T04:59:08.495Z,100.00
2023-05-06T05:01:35.654Z,100.00
2023-05-06T05:04:03.267Z,100.00
2023-05-06T05:06:31.970Z,100.00
2023-05-06T05:08:59.915Z,100.00
2023-05-06T05:11:28.268Z,100.00
2023-05-06T05:13:58.899Z,99.61
2023-05-06T05:16:27.822Z,96.65
2023-05-06T05:18:55.219Z,97.94
2023-05-06T05:21:23.445Z,96.88
2023-05-06T05:23:51.035Z,96.43
2023-05-06T05:26:18.161Z,97.61
2023-05-06T05:28:45.888Z,97.78
2023-05-06T05:31:13.513Z,96.45
2023-05-06T05:33:41.253Z,95.21
2023-05-06T05:36:09.181Z,94.47
2023-05-06T05:38:37.146Z,93.47
2023-05-06T05:41:04.768Z,92.02
2023-05-06T05:43:32.518Z,84.46
2023-05-06T05:46:01.353Z,75.21
2023-05-06T05:48:32.889Z,72.93
2023-05-06T05:51:04.282Z,65.62
2023-05-06T05:53:31.811Z,58.03
2023-05-06T05:55:59.355Z,55.43
2023-05-06T05:58:27.056Z,57.59
2023-05-06T06:00:55.479Z,52.55
2023-05-06T06:03:23.110Z,49.96
2023-05-06T06:05:52.981Z,45.21
2023-05-06T06:08:20.305Z,52.74
2023-05-06T06:10:48.286Z,54.86
2023-05-06T06:13:16.045Z,57.29
2023-05-06T06:15:43.466Z,49.79
2023-05-06T06:18:10.941Z,51.34
2023-05-06T06:20:38.621Z,51.38
2023-05-06T06:23:05.931Z,49.44
2023-05-06T06:25:33.775Z,45.89
2023-05-06T06:28:00.993Z,45.65
2023-05-06T06:30:28.559Z,48.99
2023-05-06T06:32:56.706Z,54.28
2023-05-06T06:35:24.042Z,49.19
2023-05-06T06:37:51.814Z,50.72
2023-05-06T06:40:19.942Z,51.64
2023-05-06T06:42:47.967Z,50.29
2023-05-06T06:45:17.794Z,53.44
2023-05-06T06:47:45.460Z,52.70
2023-05-06T06:50:12.826Z,50.79
2023-05-06T06:52:40.257Z,49.25
2023-05-06T06:55:08.704Z,47.25
2023-05-06T06:57:37.219Z,44.46
2023-05-06T07:00:05.223Z,43.93
2023-05-06T07:02:32.794Z,42.59
2023-05-06T07:04:59.958Z,42.55
2023-05-06T07:07:27.367Z,43.15
2023-05-06T07:09:55.021Z,42.50
2023-05-06T07:12:23.893Z,44.93
2023-05-06T07:14:51.391Z,43.53
2023-05-06T07:17:18.906Z,43.43
2023-05-06T07:19:46.202Z,46.10
2023-05-06T07:22:13.513Z,47.40
2023-05-06T07:24:41.413Z,44.84
2023-05-06T07:27:08.558Z,44.43
2023-05-06T07:29:36.927Z,44.64
2023-05-06T07:32:04.649Z,42.14
2023-05-06T07:34:34.198Z,49.17
2023-05-06T07:37:01.783Z,46.71
2023-05-06T07:39:29.217Z,44.38
2023-05-06T07:41:56.351Z,41.67
2023-05-06T07:44:23.505Z,43.16
2023-05-06T07:46:51.219Z,44.85
2023-05-06T07:49:18.511Z,41.44
2023-05-06T07:51:45.781Z,39.35
2023-05-06T07:54:13.343Z,42.77
2023-05-06T07:56:40.812Z,40.19
2023-05-06T07:59:07.980Z,42.23
2023-05-06T08:01:36.149Z,39.71
2023-05-06T08:04:03.844Z,36.84
2023-05-06T08:06:32.377Z,38.21
2023-05-06T08:09:00.358Z,42.32
2023-05-06T08:11:27.822Z,40.09
2023-05-06T08:13:55.051Z,43.12
2023-05-06T08:16:25.526Z,42.39
2023-05-06T08:22:24.267Z,39.26
2023-05-06T08:24:52.040Z,41.57
2023-05-06T08:27:19.327Z,42.11
2023-05-06T08:29:46.661Z,40.72
2023-05-06T08:32:14.323Z,40.11
2023-05-06T08:34:41.559Z,40.73
2023-05-06T08:37:09.067Z,40.16
2023-05-06T08:39:36.757Z,37.23
2023-05-06T08:42:05.373Z,37.27
2023-05-06T08:44:33.765Z,37.56
2023-05-06T08:47:01.629Z,38.41
2023-05-06T08:49:29.019Z,38.73
2023-05-06T08:51:57.279Z,39.62
2023-05-06T08:54:26.145Z,39.53
2023-05-06T08:56:54.828Z,40.77
2023-05-06T09:02:52.826Z,40.79
2023-05-06T09:05:20.710Z,39.84
2023-05-06T09:07:47.920Z,41.13
2023-05-06T09:10:15.686Z,41.80
2023-05-06T09:12:43.359Z,41.42
2023-05-06T09:15:11.338Z,40.11
2023-05-06T09:17:38.869Z,40.95
2023-05-06T09:20:09.590Z,40.73
2023-05-06T09:22:38.139Z,40.74
2023-05-06T09:25:06.015Z,41.52
2023-05-06T09:27:34.830Z,40.97
2023-05-06T09:30:12.649Z,41.04
2023-05-06T09:32:41.849Z,41.78
2023-05-06T09:35:10.720Z,40.53
2023-05-06T09:37:38.091Z,38.45
2023-05-06T09:40:06.126Z,38.52
2023-05-06T09:42:34.052Z,37.22
2023-05-06T09:45:02.360Z,35.99
2023-05-06T09:47:35.130Z,37.17
2023-05-06T09:50:03.445Z,38.14
2023-05-06T09:52:31.733Z,39.39
2023-05-06T09:54:59.637Z,39.56
2023-05-06T09:57:30.847Z,38.47
2023-05-06T09:59:59.142Z,41.30
2023-05-06T10:05:46.582Z,41.60
2023-05-06T10:11:33.369Z,39.63
2023-05-06T10:14:01.759Z,41.04
2023-05-06T10:16:29.675Z,39.85
2023-05-06T10:22:46.079Z,39.60
2023-05-06T10:28:49.613Z,37.68
2023-05-06T10:31:17.396Z,34.95
2023-05-06T10:33:51.042Z,34.50
2023-05-06T10:36:20.580Z,33.01
2023-05-06T10:38:56.540Z,33.56
2023-05-06T10:45:05.242Z,35.31
2023-05-06T10:47:58.403Z,35.47
2023-05-06T10:50:26.934Z,35.49
2023-05-06T10:52:56.368Z,35.60
2023-05-06T10:55:27.361Z,36.83
2023-05-06T10:58:02.996Z,35.86
2023-05-06T11:00:34.783Z,35.15
2023-05-06T11:03:06.161Z,35.50
2023-05-06T11:05:47.602Z,34.18
2023-05-06T11:08:15.658Z,34.40
2023-05-06T11:10:42.896Z,33.95
2023-05-06T11:13:21.907Z,33.59
2023-05-06T11:15:52.512Z,34.01
2023-05-06T11:21:52.352Z,34.02
2023-05-06T11:24:31.765Z,38.38
2023-05-06T11:30:29.308Z,34.97
2023-05-06T11:36:04.682Z,35.93
2023-05-06T11:38:52.810Z,36.03
2023-05-06T11:41:23.196Z,36.44
2023-05-06T11:43:52.018Z,36.82
2023-05-06T11:46:22.302Z,36.40
2023-05-06T11:48:50.847Z,35.92
2023-05-06T11:51:25.973Z,36.08
2023-05-06T11:54:07.623Z,37.15
2023-05-06T11:56:49.288Z,37.19
2023-05-06T11:59:18.721Z,37.39
2023-05-06T12:01:46.422Z,38.70
2023-05-06T12:04:14.469Z,39.18
2023-05-06T12:06:41.876Z,38.97
2023-05-06T12:09:12.375Z,38.51
2023-05-06T12:11:41.618Z,38.50
2023-05-06T12:14:13.338Z,39.19
2023-05-06T12:16:41.808Z,39.33
2023-05-06T12:19:09.405Z,39.36
2023-05-06T12:21:41.931Z,39.95
2023-05-06T12:27:40.455Z,40.18
2023-05-06T12:30:09.555Z,40.31
2023-05-06T12:32:56.546Z,39.25
2023-05-06T12:35:32.512Z,40.20
2023-05-06T12:38:11.043Z,39.81
2023-05-06T12:40:39.528Z,39.75
2023-05-06T12:43:07.430Z,40.57
2023-05-06T12:45:35.030Z,40.70
2023-05-06T12:48:04.044Z,40.42
2023-05-06T12:50:43.046Z,41.29
2023-05-06T12:53:13.966Z,41.04
2023-05-06T12:55:45.468Z,40.97
2023-05-06T12:58:18.617Z,41.92
2023-05-06T13:00:46.008Z,40.77
2023-05-06T13:03:14.145Z,40.77
2023-05-06T13:05:41.748Z,41.33
2023-05-06T13:08:09.021Z,40.67
2023-05-06T13:10:36.858Z,40.98
2023-05-06T13:13:04.232Z,40.61
2023-05-06T13:15:34.752Z,40.89
2023-05-06T13:18:02.554Z,42.26
2023-05-06T13:20:31.097Z,40.90
2023-05-06T13:22:58.442Z,42.01
2023-05-06T13:25:26.069Z,42.26
2023-05-06T13:27:53.721Z,40.24
2023-05-06T13:30:21.128Z,39.80
2023-05-06T13:32:51.992Z,39.35
2023-05-06T13:35:21.654Z,40.36
2023-05-06T13:37:49.313Z,41.26
2023-05-06T13:40:16.758Z,41.78
2023-05-06T13:42:44.363Z,41.05
2023-05-06T13:45:12.141Z,41.22
2023-05-06T13:47:39.515Z,44.06
2023-05-06T13:50:07.402Z,45.92
2023-05-06T13:52:34.960Z,47.91
2023-05-06T13:55:02.258Z,50.03
2023-05-06T13:57:29.655Z,50.17
2023-05-06T13:59:57.384Z,53.80
2023-05-06T14:02:27.810Z,53.49
2023-05-06T14:04:58.312Z,54.23
2023-05-06T14:07:25.611Z,54.33
2023-05-06T14:09:53.018Z,57.30
2023-05-06T14:12:23.050Z,55.98
2023-05-06T14:14:50.328Z,58.71
2023-05-06T14:17:17.661Z,58.26
2023-05-06T14:19:45.991Z,59.98
2023-05-06T14:22:13.319Z,65.32
2023-05-06T14:24:40.683Z,63.75
2023-05-06T14:27:08.276Z,65.21
2023-05-06T14:29:35.652Z,66.68
2023-05-06T14:32:03.177Z,66.62
2023-05-06T14:34:30.843Z,68.26
2023-05-06T14:37:00.624Z,72.51
2023-05-06T14:39:28.246Z,70.51
2023-05-06T14:41:55.864Z,69.98
2023-05-06T14:44:23.118Z,70.86
2023-05-06T14:46:55.055Z,73.79
2023-05-06T14:49:22.664Z,74.29
2023-05-06T14:51:51.474Z,73.00
2023-05-06T14:54:29.355Z,73.60
2023-05-06T14:57:01.332Z,73.11
2023-05-06T14:59:28.745Z,73.43
2023-05-06T15:01:57.035Z,74.04
2023-05-06T15:04:24.894Z,76.05
2023-05-06T15:06:54.988Z,76.22
2023-05-06T15:09:23.031Z,74.24
2023-05-06T15:11:51.288Z,74.02
2023-05-06T15:14:18.837Z,75.73
2023-05-06T15:16:46.297Z,76.61
2023-05-06T15:19:17.013Z,74.73
2023-05-06T15:21:46.815Z,74.54
2023-05-06T15:24:14.755Z,73.41
2023-05-06T15:26:41.962Z,74.69
2023-05-06T15:29:09.187Z,74.17
2023-05-06T15:31:39.328Z,75.03
2023-05-06T15:34:08.852Z,75.93
2023-05-06T15:36:36.244Z,76.87
2023-05-06T15:39:04.508Z,78.68
2023-05-06T15:41:33.424Z,79.33
2023-05-06T15:44:02.873Z,80.23
2023-05-06T15:46:31.412Z,79.12
2023-05-06T15:49:21.175Z,78.84
2023-05-06T15:51:47.536Z,77.86
2023-05-06T15:54:18.430Z,77.18
2023-05-06T15:56:46.404Z,74.15
2023-05-06T15:59:14.237Z,72.55
2023-05-06T16:02:24.664Z,70.60
2023-05-06T16:04:30.278Z,68.99
2023-05-06T16:10:30.442Z,65.14
2023-05-06T16:12:58.000Z,63.35
2023-05-06T16:15:25.684Z,64.66
2023-05-06T16:17:53.134Z,64.54
2023-05-06T16:20:21.587Z,64.88
2023-05-06T16:22:52.610Z,65.66
2023-05-06T16:25:23.195Z,66.87
2023-05-06T16:27:51.085Z,68.35
2023-05-06T16:30:18.469Z,68.96
2023-05-06T16:32:45.881Z,67.99
2023-05-06T16:35:13.678Z,68.92
2023-05-06T16:37:43.231Z,69.42
2023-05-06T16:40:13.469Z,68.71
2023-05-06T16:42:41.195Z,70.66
2023-05-06T16:45:09.354Z,72.37
2023-05-06T16:47:37.178Z,72.35
2023-05-06T16:50:08.929Z,74.19
2023-05-06T16:52:36.358Z,76.34
2023-05-06T16:55:07.418Z,76.83
2023-05-06T17:01:08.214Z,77.39
2023-05-06T17:07:14.405Z,80.76
2023-05-06T17:09:42.455Z,81.15
2023-05-06T17:12:17.434Z,80.71
2023-05-06T17:14:45.438Z,81.19
2023-05-06T17:17:12.767Z,81.05
2023-05-06T17:19:40.108Z,81.00
2023-05-06T17:22:08.297Z,81.28
2023-05-06T17:24:36.046Z,81.59
2023-05-06T17:27:04.963Z,82.35
2023-05-06T17:29:32.569Z,82.18
2023-05-06T17:31:59.909Z,82.48
2023-05-06T17:34:27.137Z,83.40
2023-05-06T17:36:54.874Z,83.56
2023-05-06T17:39:22.151Z,83.42
2023-05-06T17:41:52.948Z,84.23
2023-05-06T17:44:20.722Z,82.97
2023-05-06T17:46:48.354Z,83.61
2023-05-06T17:49:15.884Z,83.08
2023-05-06T17:55:17.387Z,82.52
2023-05-06T17:57:45.242Z,83.55
2023-05-06T18:00:13.867Z,85.82
2023-05-06T18:06:13.565Z,88.45
2023-05-06T18:08:41.107Z,90.69
2023-05-06T18:11:08.434Z,91.39
2023-05-06T18:13:36.713Z,91.87
2023-05-06T18:16:06.073Z,90.65
2023-05-06T18:18:33.586Z,92.15
2023-05-06T18:21:00.947Z,93.38
2023-05-06T18:23:29.964Z,93.17
2023-05-06T18:25:57.214Z,93.70
2023-05-06T18:28:24.533Z,94.13
2023-05-06T18:34:24.390Z,94.93
2023-05-06T18:36:51.927Z,94.18
2023-05-06T18:39:21.648Z,94.49
2023-05-06T18:41:49.034Z,94.76
2023-05-06T18:44:16.608Z,96.05
2023-05-06T18:46:43.939Z,96.90
2023-05-06T18:49:14.391Z,98.51
2023-05-06T18:51:42.020Z,99.54
2023-05-06T18:54:09.367Z,99.88
2023-05-06T18:56:37.449Z,100.00
2023-05-06T18:59:05.288Z,100.00
2023-05-06T19:01:32.579Z,100.00
2023-05-06T19:04:00.001Z,100.00
2023-05-06T19:06:27.914Z,100.00
2023-05-06T19:08:55.180Z,100.00
2023-05-06T19:11:22.611Z,100.00
2023-05-06T19:13:52.080Z,100.00
2023-05-06T19:16:19.508Z,100.00
2023-05-06T19:18:47.989Z,100.00
2023-05-06T19:21:15.964Z,100.00
2023-05-06T19:23:43.194Z,100.00
2023-05-06T19:26:11.419Z,100.00
2023-05-06T19:28:42.262Z,100.00
2023-05-06T19:31:10.671Z,100.00
2023-05-06T19:37:09.281Z,100.00
2023-05-06T19:39:36.846Z,100.00
2023-05-06T19:42:04.795Z,100.00
2023-05-06T19:44:32.114Z,100.00
2023-05-06T19:46:59.651Z,100.00
2023-05-06T19:49:26.911Z,100.00
2023-05-06T19:51:54.264Z,100.00
2023-05-06T19:54:22.490Z,100.00
2023-05-06T19:56:49.673Z,100.00
2023-05-06T19:59:17.717Z,100.00
2023-05-06T20:01:45.140Z,100.00
2023-05-06T20:04:12.781Z,100.00
2023-05-06T20:06:40.049Z,100.00
2023-05-06T20:09:07.378Z,100.00
2023-05-06T20:11:34.925Z,100.00
2023-05-06T20:14:02.154Z,100.00
2023-05-06T20:16:29.397Z,100.00
2023-05-06T20:18:57.228Z,100.00
2023-05-06T20:21:24.405Z,100.00
2023-05-06T20:23:51.693Z,100.00
2023-05-06T20:26:20.002Z,100.00
2023-05-06T20:28:47.494Z,100.00
2023-05-06T20:31:17.661Z,100.00
2023-05-06T20:33:46.189Z,100.00
2023-05-06T20:36:13.778Z,100.00
2023-05-06T20:38:41.877Z,100.00
2023-05-06T20:41:09.849Z,100.00
2023-05-06T20:43:37.048Z,100.00
2023-05-06T20:46:04.243Z,100.00
2023-05-06T20:48:32.166Z,100.00
2023-05-06T20:50:59.365Z,100.00
2023-05-06T20:53:27.367Z,100.00
2023-05-06T20:55:55.072Z,100.00
2023-05-06T20:58:22.398Z,100.00
2023-05-06T21:00:50.539Z,100.00
2023-05-06T21:03:18.151Z,100.00
2023-05-06T21:05:45.547Z,100.00
2023-05-06T21:08:12.941Z,100.00
2023-05-06T21:10:40.356Z,100.00
2023-05-06T21:16:39.813Z,100.00
2023-05-06T21:19:07.730Z,100.00
2023-05-06T21:21:35.034Z,100.00
2023-05-06T21:24:02.701Z,100.00
2023-05-06T21:26:31.299Z,100.00
2023-05-06T21:28:58.557Z,100.00
2023-05-06T21:31:26.945Z,100.00
2023-05-06T21:33:55.925Z,100.00
2023-05-06T21:36:23.325Z,100.00
2023-05-06T21:39:09.847Z,100.00
2023-05-06T21:41:37.560Z,100.00
2023-05-06T21:44:06.073Z,100.00
2023-05-06T21:46:34.962Z,100.00
2023-05-06T21:49:02.581Z,100.00
2023-05-06T21:51:34.802Z,100.00
2023-05-06T21:54:02.848Z,100.00
2023-05-06T21:56:30.384Z,100.00
2023-05-06T21:58:57.607Z,100.00
2023-05-06T22:01:26.342Z,100.00
2023-05-06T22:03:54.249Z,100.00
2023-05-06T22:06:22.501Z,100.00
2023-05-06T22:08:49.896Z,100.00
2023-05-06T22:11:17.675Z,100.00
2023-05-06T22:13:44.858Z,100.00
2023-05-06T22:16:12.487Z,100.00
2023-05-06T22:18:42.922Z,100.00
2023-05-06T22:21:10.057Z,100.00
2023-05-06T22:23:37.813Z,100.00
2023-05-06T22:26:05.296Z,100.00
2023-05-06T22:28:32.840Z,100.00
2023-05-06T22:30:59.961Z,100.00
2023-05-06T22:33:27.440Z,100.00
2023-05-06T22:35:55.575Z,100.00
2023-05-06T22:38:22.959Z,100.00
2023-05-06T22:40:50.801Z,100.00
2023-05-06T22:43:18.149Z,100.00
2023-05-06T22:45:45.274Z,100.00
2023-05-06T22:48:12.757Z,100.00
2023-05-06T22:50:39.980Z,100.00
2023-05-06T22:53:15.140Z,100.00
2023-05-06T22:55:43.182Z,100.00
2023-05-06T22:58:10.494Z,100.00
2023-05-06T23:00:37.688Z,100.00
2023-05-06T23:03:06.133Z,100.00
2023-05-06T23:05:33.415Z,100.00
2023-05-06T23:08:00.616Z,100.00
2023-05-06T23:10:28.114Z,100.00
2023-05-06T23:12:55.404Z,100.00
2023-05-06T23:15:23.113Z,100.00
2023-05-06T23:17:50.805Z,100.00
2023-05-06T23:20:17.976Z,100.00
2023-05-06T23:22:45.116Z,100.00
2023-05-06T23:25:12.881Z,100.00
2023-05-06T23:27:40.941Z,100.00
2023-05-06T23:33:37.999Z,100.00
2023-05-06T23:36:05.764Z,100.00
2023-05-06T23:38:32.841Z,100.00
2023-05-06T23:40:59.917Z,100.00
2023-05-06T23:43:27.360Z,100.00
2023-05-06T23:45:54.526Z,100.00
2023-05-06T23:48:21.689Z,100.00
2023-05-06T23:50:49.168Z,100.00
2023-05-06T23:53:16.297Z,100.00
2023-05-06T23:55:44.280Z,100.00
2023-05-06T23:58:11.791Z,100.00
